Time;durP1;ratioP1;P1;durP2;ratioP2;P2;SDS_P1;SDS_P2;PMS_P1;PMS_P2;Temp;Humidity;BMP_temperature;BMP_pressure;BME280_temperature;BME280_humidity;BME280_pressure;Samples;Min_cycle;Max_cycle;Signal;HPM_P1;HPM_P2
2021/05/06 00:02:11;;;;;;;3.63;1.08;;;;;;;;;;6165479;23;20402;-47
2021/05/06 00:33:42;;;;;;;4.07;1.30;;;;;;;;;;6185466;23;20037;-47
2021/05/06 00:36:08;;;;;;;4.78;1.00;;;;;;;;;;6185421;23;20010;-47
2021/05/06 00:38:43;;;;;;;4.07;1.30;;;;;;;;;;6186184;23;20058;-48
2021/05/06 00:53:55;;;;;;;3.33;0.88;;;;;;;;;;6187258;23;20358;-47
2021/05/06 01:03:15;;;;;;;4.18;1.00;;;;;;;;;;6186812;23;20016;-47
2021/05/06 01:05:59;;;;;;;2.35;0.80;;;;;;;;;;6187302;23;20009;-48
2021/05/06 01:08:29;;;;;;;10.55;1.35;;;;;;;;;;6186773;23;20044;-48
2021/05/06 01:13:28;;;;;;;2.30;1.25;;;;;;;;;;6187325;23;20017;-47
2021/05/06 01:15:54;;;;;;;1.70;1.15;;;;;;;;;;6186708;23;20309;-46
2021/05/06 01:18:21;;;;;;;1.92;1.10;;;;;;;;;;6186598;23;20052;-46
2021/05/06 01:20:50;;;;;;;2.17;0.95;;;;;;;;;;6186556;23;20463;-48
2021/05/06 01:23:17;;;;;;;2.65;1.05;;;;;;;;;;6187153;23;20005;-48
2021/05/06 01:25:51;;;;;;;2.13;0.95;;;;;;;;;;6186498;23;19993;-48
2021/05/06 01:28:20;;;;;;;1.33;0.95;;;;;;;;;;6187191;23;20013;-48
2021/05/06 01:30:51;;;;;;;4.32;1.23;;;;;;;;;;6187105;23;20005;-47
2021/05/06 01:59:47;;;;;;;2.53;1.10;;;;;;;;;;6094940;23;20074;-48
2021/05/06 02:02:13;;;;;;;3.47;1.23;;;;;;;;;;6095122;23;20029;-47
2021/05/06 02:04:38;;;;;;;8.73;1.48;;;;;;;;;;6094759;23;20312;-47
2021/05/06 02:07:04;;;;;;;4.30;1.35;;;;;;;;;;6094951;23;20086;-47
2021/05/06 02:09:31;;;;;;;2.53;1.00;;;;;;;;;;6094464;23;20094;-47
2021/05/06 02:11:57;;;;;;;0.80;0.80;;;;;;;;;;6143565;23;19997;-48
2021/05/06 02:14:23;;;;;;;1.50;1.05;;;;;;;;;;6186696;23;20012;-48
2021/05/06 02:16:50;;;;;;;1.95;0.70;;;;;;;;;;6186466;23;20079;-47
2021/05/06 02:19:24;;;;;;;3.72;1.30;;;;;;;;;;6186111;23;20120;-47
2021/05/06 02:21:50;;;;;;;1.55;1.08;;;;;;;;;;6186053;23;20036;-48
2021/05/06 02:24:16;;;;;;;1.33;0.82;;;;;;;;;;6186247;23;20008;-47
2021/05/06 02:26:43;;;;;;;1.02;0.93;;;;;;;;;;6182101;23;20444;-48
2021/05/06 02:29:09;;;;;;;11.68;0.93;;;;;;;;;;6184261;23;20020;-47
2021/05/06 02:31:35;;;;;;;1.90;1.02;;;;;;;;;;6186604;23;19997;-48
2021/05/06 02:34:01;;;;;;;3.53;1.13;;;;;;;;;;6186031;23;20005;-47
2021/05/06 02:36:27;;;;;;;3.92;0.98;;;;;;;;;;6186061;23;20024;-48
2021/05/06 02:38:53;;;;;;;2.53;1.00;;;;;;;;;;6185950;23;20282;-47
2021/05/06 02:41:19;;;;;;;3.58;0.88;;;;;;;;;;6186263;23;20024;-48
2021/05/06 02:43:45;;;;;;;2.38;1.08;;;;;;;;;;6185836;23;20401;-47
2021/05/06 02:46:11;;;;;;;1.23;0.70;;;;;;;;;;6185977;23;20007;-47
2021/05/06 02:48:37;;;;;;;2.33;1.15;;;;;;;;;;6185753;23;20025;-47
2021/05/06 02:51:05;;;;;;;1.45;0.90;;;;;;;;;;6186489;23;20073;-47
2021/05/06 02:53:39;;;;;;;2.40;1.35;;;;;;;;;;6186027;23;20076;-47
2021/05/06 02:56:12;;;;;;;1.48;1.15;;;;;;;;;;6185828;23;20275;-48
2021/05/06 03:04:00;;;;;;;2.75;1.20;;;;;;;;;;6185661;23;20020;-47
2021/05/06 03:06:28;;;;;;;4.13;1.08;;;;;;;;;;6186026;23;20116;-47
2021/05/06 03:08:59;;;;;;;3.88;1.27;;;;;;;;;;6184963;23;20413;-48
2021/05/06 03:24:52;;;;;;;9.60;3.22;;;;;;;;;;6185824;23;20043;-48
2021/05/06 03:27:19;;;;;;;6.60;2.33;;;;;;;;;;6185237;23;20076;-48
2021/05/06 03:30:02;;;;;;;8.77;2.78;;;;;;;;;;6185007;23;19997;-47
2021/05/06 03:49:38;;;;;;;1.48;1.17;;;;;;;;;;6185342;23;20060;-48
2021/05/06 04:27:21;;;;;;;4.88;1.83;;;;;;;;;;6185219;23;20416;-48
2021/05/06 04:30:41;;;;;;;10.55;2.13;;;;;;;;;;6183578;23;20055;-48
2021/05/06 04:37:51;;;;;;;5.75;2.38;;;;;;;;;;6185684;23;20017;-47
2021/05/06 04:56:10;;;;;;;6.72;2.05;;;;;;;;;;6185539;23;20493;-47
2021/05/06 05:06:26;;;;;;;6.13;1.98;;;;;;;;;;6195277;23;20005;-47
2021/05/06 05:11:35;;;;;;;5.70;1.75;;;;;;;;;;6185359;23;20013;-48
2021/05/06 05:26:57;;;;;;;4.05;1.45;;;;;;;;;;6187021;23;20009;-47
2021/05/06 05:29:23;;;;;;;2.88;1.23;;;;;;;;;;6186427;23;20004;-47
2021/05/06 05:31:49;;;;;;;4.78;1.67;;;;;;;;;;6186869;23;20352;-47
2021/05/06 05:34:40;;;;;;;7.30;1.77;;;;;;;;;;6186132;23;20405;-48
2021/05/06 05:37:02;;;;;;;2.85;1.63;;;;;;;;;;6186293;23;20009;-47
2021/05/06 05:55:31;;;;;;;6.70;1.35;;;;;;;;;;6095329;23;20128;-47
2021/05/06 05:57:57;;;;;;;4.78;1.08;;;;;;;;;;6094965;23;20029;-48
2021/05/06 06:00:23;;;;;;;4.50;1.30;;;;;;;;;;6095001;23;20061;-48
2021/05/06 06:02:49;;;;;;;4.80;1.20;;;;;;;;;;6095173;23;20002;-48
2021/05/06 06:05:15;;;;;;;1.95;1.20;;;;;;;;;;6094919;23;20006;-47
2021/05/06 06:07:41;;;;;;;1.55;0.93;;;;;;;;;;6094791;23;20051;-48
2021/05/06 06:10:07;;;;;;;1.20;1.10;;;;;;;;;;6093791;23;20062;-48
2021/05/06 06:12:33;;;;;;;1.42;0.95;;;;;;;;;;6095036;23;20010;-48
2021/05/06 06:15:02;;;;;;;2.05;1.25;;;;;;;;;;6094868;23;20022;-46
2021/05/06 06:17:33;;;;;;;1.40;1.00;;;;;;;;;;6095051;23;20028;-48
2021/05/06 06:20:00;;;;;;;2.50;1.15;;;;;;;;;;6105769;23;20237;-47
2021/05/06 06:22:29;;;;;;;2.38;0.85;;;;;;;;;;6175228;23;20020;-47
2021/05/06 06:24:55;;;;;;;1.38;1.20;;;;;;;;;;6186605;23;20035;-48
2021/05/06 06:27:21;;;;;;;2.97;1.08;;;;;;;;;;6186667;23;20417;-49
2021/05/06 06:29:47;;;;;;;1.45;0.95;;;;;;;;;;6185966;23;20021;-48
2021/05/06 06:32:16;;;;;;;2.63;1.20;;;;;;;;;;6186214;23;20397;-47
2021/05/06 06:34:42;;;;;;;1.38;0.85;;;;;;;;;;6185628;23;20161;-48
2021/05/06 06:37:08;;;;;;;7.80;1.55;;;;;;;;;;6186198;23;20414;-48
2021/05/06 06:39:38;;;;;;;1.42;0.95;;;;;;;;;;6186188;23;20013;-48
2021/05/06 06:42:05;;;;;;;1.75;1.10;;;;;;;;;;6186288;23;20023;-48
2021/05/06 06:44:33;;;;;;;5.35;1.10;;;;;;;;;;6186604;23;20016;-48
2021/05/06 06:47:03;;;;;;;5.45;1.10;;;;;;;;;;6185844;23;19997;-48
2021/05/06 06:49:31;;;;;;;2.75;1.23;;;;;;;;;;6186578;23;20009;-47
2021/05/06 06:51:57;;;;;;;1.80;1.00;;;;;;;;;;6185935;23;20506;-48
2021/05/06 06:54:24;;;;;;;4.22;0.98;;;;;;;;;;6186228;23;20101;-47
2021/05/06 06:56:51;;;;;;;2.90;1.02;;;;;;;;;;6185846;23;20008;-46
2021/05/06 06:59:17;;;;;;;2.83;1.15;;;;;;;;;;6185967;23;20036;-48
2021/05/06 07:01:43;;;;;;;1.08;0.98;;;;;;;;;;6185413;23;20393;-47
2021/05/06 07:04:09;;;;;;;4.03;0.95;;;;;;;;;;6185634;23;20036;-48
2021/05/06 07:06:35;;;;;;;2.15;1.15;;;;;;;;;;6186239;23;20024;-48
2021/05/06 07:09:02;;;;;;;1.50;0.80;;;;;;;;;;6185945;23;20004;-47
2021/05/06 07:11:28;;;;;;;1.63;1.02;;;;;;;;;;6185586;23;20063;-47
2021/05/06 07:13:53;;;;;;;8.77;1.17;;;;;;;;;;6186158;23;20322;-47
2021/05/06 07:16:20;;;;;;;1.30;0.85;;;;;;;;;;6185329;23;20063;-47
2021/05/06 07:18:46;;;;;;;7.72;1.70;;;;;;;;;;6185461;23;20064;-47
2021/05/06 07:21:12;;;;;;;0.82;0.82;;;;;;;;;;6185287;23;20009;-47
2021/05/06 07:23:38;;;;;;;4.00;1.42;;;;;;;;;;6186241;23;20016;-47
2021/05/06 07:26:05;;;;;;;1.70;1.08;;;;;;;;;;6185749;23;19997;-48
2021/05/06 07:28:38;;;;;;;5.07;1.13;;;;;;;;;;6185527;23;20005;-48
2021/05/06 07:31:04;;;;;;;3.08;1.70;;;;;;;;;;6185576;23;20271;-47
2021/05/06 07:33:31;;;;;;;5.18;1.58;;;;;;;;;;6185794;23;20016;-47
2021/05/06 07:35:58;;;;;;;2.33;1.17;;;;;;;;;;6185798;23;19997;-47
2021/05/06 07:38:24;;;;;;;6.30;1.17;;;;;;;;;;6185002;23;20016;-46
2021/05/06 07:40:51;;;;;;;1.25;1.00;;;;;;;;;;6185812;23;20005;-47
2021/05/06 07:43:17;;;;;;;5.55;1.42;;;;;;;;;;6185459;23;20016;-47
2021/05/06 07:45:43;;;;;;;5.53;1.50;;;;;;;;;;6185815;23;20009;-48
2021/05/06 07:48:09;;;;;;;2.47;1.55;;;;;;;;;;6185340;23;20097;-47
2021/05/06 07:50:35;;;;;;;2.22;1.10;;;;;;;;;;6185069;23;20414;-47
2021/05/06 07:53:24;;;;;;;4.35;1.00;;;;;;;;;;6185908;23;20084;-47
2021/05/06 07:55:51;;;;;;;0.98;0.80;;;;;;;;;;6184662;23;20016;-47
2021/05/06 07:58:17;;;;;;;5.60;0.77;;;;;;;;;;6185393;23;20456;-47
2021/05/06 08:00:43;;;;;;;0.73;0.45;;;;;;;;;;6185312;23;20025;-47
2021/05/06 08:03:09;;;;;;;5.68;1.10;;;;;;;;;;6185514;23;20009;-47
2021/05/06 08:05:35;;;;;;;0.60;0.60;;;;;;;;;;6185622;23;19998;-47
2021/05/06 08:08:02;;;;;;;0.40;0.40;;;;;;;;;;6185422;23;20009;-47
2021/05/06 08:10:28;;;;;;;1.50;0.90;;;;;;;;;;6184737;23;19994;-48
2021/05/06 08:12:55;;;;;;;2.25;0.90;;;;;;;;;;6185303;23;20036;-48
2021/05/06 08:15:21;;;;;;;2.47;1.13;;;;;;;;;;6185331;23;20055;-47
2021/05/06 08:17:49;;;;;;;2.50;0.40;;;;;;;;;;6185008;23;20009;-48
2021/05/06 08:20:15;;;;;;;3.33;1.38;;;;;;;;;;6185085;23;20017;-48
2021/05/06 08:22:41;;;;;;;5.68;0.90;;;;;;;;;;6185170;23;20393;-48
2021/05/06 08:25:09;;;;;;;2.08;0.60;;;;;;;;;;6184693;23;20005;-47
2021/05/06 08:27:35;;;;;;;3.53;1.40;;;;;;;;;;6185294;23;20032;-48
2021/05/06 08:30:01;;;;;;;1.80;0.80;;;;;;;;;;6185449;23;20362;-48
2021/05/06 08:32:28;;;;;;;4.13;1.15;;;;;;;;;;6185625;23;20001;-48
2021/05/06 08:34:54;;;;;;;2.30;1.10;;;;;;;;;;6185123;23;20166;-47
2021/05/06 08:37:20;;;;;;;0.68;0.60;;;;;;;;;;6185254;23;20005;-47
2021/05/06 08:39:47;;;;;;;4.35;1.17;;;;;;;;;;6184880;23;20009;-48
2021/05/06 08:42:14;;;;;;;0.47;0.47;;;;;;;;;;6185179;23;20016;-48
2021/05/06 08:44:41;;;;;;;0.63;0.60;;;;;;;;;;6185246;23;20063;-48
2021/05/06 08:47:12;;;;;;;1.15;0.60;;;;;;;;;;6185476;23;20005;-47
2021/05/06 08:49:38;;;;;;;1.95;1.20;;;;;;;;;;6185430;23;20005;-47
2021/05/06 08:52:06;;;;;;;2.53;1.20;;;;;;;;;;6185099;23;20001;-48
2021/05/06 08:54:32;;;;;;;0.73;0.73;;;;;;;;;;6185331;23;20025;-47
2021/05/06 08:56:58;;;;;;;2.53;1.08;;;;;;;;;;6184959;23;20001;-48
2021/05/06 08:59:24;;;;;;;3.22;0.98;;;;;;;;;;6185860;23;20013;-48
2021/05/06 09:01:52;;;;;;;2.25;1.25;;;;;;;;;;6187438;23;20012;-47
2021/05/06 09:04:18;;;;;;;1.38;1.02;;;;;;;;;;6187032;23;20007;-48
2021/05/06 09:06:54;;;;;;;2.75;1.13;;;;;;;;;;6186691;23;20012;-48
2021/05/06 09:09:21;;;;;;;0.80;0.63;;;;;;;;;;6186649;23;20005;-47
2021/05/06 09:11:52;;;;;;;1.33;0.82;;;;;;;;;;6186878;23;20432;-48
2021/05/06 09:14:18;;;;;;;2.40;0.90;;;;;;;;;;6187163;23;20001;-48
2021/05/06 09:16:45;;;;;;;0.70;0.63;;;;;;;;;;6187025;23;20028;-48
2021/05/06 09:19:15;;;;;;;5.32;1.13;;;;;;;;;;6186386;23;20047;-48
2021/05/06 09:21:43;;;;;;;3.92;0.93;;;;;;;;;;6186663;23;20005;-48
2021/05/06 09:24:37;;;;;;;1.48;0.80;;;;;;;;;;6187251;23;20012;-48
2021/05/06 09:27:05;;;;;;;0.80;0.80;;;;;;;;;;6185032;23;20008;-48
2021/05/06 09:29:41;;;;;;;2.90;1.30;;;;;;;;;;6186237;23;20400;-48
2021/05/06 09:32:12;;;;;;;7.07;1.13;;;;;;;;;;6186468;23;19997;-48
2021/05/06 09:34:38;;;;;;;;;;;;;;;;;;6187789;23;20012;-47
2021/05/06 09:37:07;;;;;;;2.58;1.10;;;;;;;;;;6186999;23;19900;-47
2021/05/06 09:39:33;;;;;;;2.25;1.17;;;;;;;;;;6186511;23;20068;-47
2021/05/06 09:42:06;;;;;;;2.67;0.75;;;;;;;;;;6186351;23;20001;-48
2021/05/06 09:44:50;;;;;;;4.28;1.20;;;;;;;;;;6186779;23;20011;-47
2021/05/06 09:47:17;;;;;;;2.22;1.02;;;;;;;;;;6186989;23;20001;-47
2021/05/06 09:49:43;;;;;;;3.88;1.30;;;;;;;;;;6186258;23;20005;-47
2021/05/06 09:52:09;;;;;;;5.38;1.10;;;;;;;;;;6186911;23;20055;-47
2021/05/06 09:54:44;;;;;;;3.17;1.30;;;;;;;;;;6186346;23;19997;-47
2021/05/06 09:57:10;;;;;;;7.65;1.10;;;;;;;;;;6186694;23;20013;-48
2021/05/06 09:59:39;;;;;;;8.02;1.20;;;;;;;;;;6185973;23;20044;-47
2021/05/06 10:02:08;;;;;;;2.80;1.20;;;;;;;;;;6186437;23;19993;-47
2021/05/06 10:04:34;;;;;;;4.47;1.25;;;;;;;;;;6187240;23;20005;-48
2021/05/06 10:07:11;;;;;;;5.32;1.17;;;;;;;;;;6186029;23;20352;-47
2021/05/06 10:09:49;;;;;;;1.65;1.00;;;;;;;;;;6186115;23;20087;-48
2021/05/06 10:12:15;;;;;;;4.50;1.20;;;;;;;;;;6186640;23;19997;-48
2021/05/06 10:14:42;;;;;;;3.35;1.50;;;;;;;;;;6186846;23;20005;-48
2021/05/06 10:17:08;;;;;;;2.13;0.93;;;;;;;;;;6186448;23;20412;-47
2021/05/06 10:19:34;;;;;;;1.35;1.23;;;;;;;;;;6185354;23;20021;-48
2021/05/06 10:22:00;;;;;;;1.15;0.90;;;;;;;;;;6186292;23;20021;-47
2021/05/06 10:24:28;;;;;;;1.02;0.80;;;;;;;;;;6186502;23;20001;-47
2021/05/06 10:26:54;;;;;;;1.80;0.85;;;;;;;;;;6186534;23;20004;-46
2021/05/06 10:29:21;;;;;;;1.92;0.88;;;;;;;;;;6186166;23;20051;-47
2021/05/06 10:31:47;;;;;;;3.53;1.48;;;;;;;;;;6186536;23;20084;-48
2021/05/06 10:34:13;;;;;;;1.67;1.08;;;;;;;;;;6185807;23;20020;-47
2021/05/06 10:36:40;;;;;;;2.35;1.67;;;;;;;;;;6186303;23;20008;-48
2021/05/06 10:39:15;;;;;;;2.80;1.35;;;;;;;;;;6185691;23;20103;-48
2021/05/06 10:41:41;;;;;;;1.10;1.00;;;;;;;;;;6186488;23;20047;-48
2021/05/06 10:44:11;;;;;;;3.47;1.38;;;;;;;;;;6186006;23;20032;-48
2021/05/06 10:47:03;;;;;;;3.53;1.00;;;;;;;;;;6186354;23;20104;-48
2021/05/06 10:49:30;;;;;;;5.80;1.42;;;;;;;;;;6186032;23;20001;-48
2021/05/06 10:52:00;;;;;;;3.97;1.20;;;;;;;;;;6186190;23;20004;-48
2021/05/06 10:54:34;;;;;;;1.90;1.10;;;;;;;;;;6185815;23;19997;-48
2021/05/06 10:57:16;;;;;;;2.17;1.05;;;;;;;;;;6185391;23;20348;-47
2021/05/06 10:59:45;;;;;;;2.35;1.30;;;;;;;;;;6185599;23;20017;-48
2021/05/06 11:02:12;;;;;;;2.38;1.08;;;;;;;;;;6186377;23;20008;-47
2021/05/06 11:04:38;;;;;;;0.68;0.68;;;;;;;;;;6186178;23;20068;-48
2021/05/06 11:07:11;;;;;;;1.35;0.82;;;;;;;;;;6185784;23;20143;-48
2021/05/06 11:09:43;;;;;;;0.20;0.20;;;;;;;;;;6185254;23;20032;-47
2021/05/06 11:12:16;;;;;;;14.82;1.67;;;;;;;;;;6186329;23;20025;-48
2021/05/06 11:15:00;;;;;;;1.95;0.90;;;;;;;;;;6185839;23;20013;-47
2021/05/06 11:17:46;;;;;;;1.02;0.93;;;;;;;;;;6186106;23;20024;-48
2021/05/06 11:20:12;;;;;;;5.57;1.05;;;;;;;;;;6184983;23;20063;-47
2021/05/06 11:22:48;;;;;;;2.08;1.83;;;;;;;;;;6185339;23;19997;-47
2021/05/06 11:25:37;;;;;;;0.85;0.68;;;;;;;;;;6185690;23;20310;-47
2021/05/06 11:28:12;;;;;;;1.33;0.88;;;;;;;;;;6185787;23;20080;-48
2021/05/06 11:30:38;;;;;;;3.58;1.17;;;;;;;;;;6185502;23;20009;-48
2021/05/06 11:33:20;;;;;;;3.10;0.90;;;;;;;;;;6185662;23;20397;-48
2021/05/06 11:36:08;;;;;;;1.63;1.17;;;;;;;;;;6186128;23;20004;-49
2021/05/06 11:38:37;;;;;;;1.10;1.00;;;;;;;;;;6185226;23;20013;-47
2021/05/06 11:41:04;;;;;;;6.28;0.75;;;;;;;;;;6185846;23;20012;-47
2021/05/06 11:43:30;;;;;;;1.52;0.95;;;;;;;;;;6185667;23;20056;-48
2021/05/06 11:46:12;;;;;;;1.55;0.88;;;;;;;;;;6186098;23;20012;-47
2021/05/06 11:48:39;;;;;;;0.95;0.63;;;;;;;;;;6185276;23;20005;-48
2021/05/06 11:51:06;;;;;;;2.85;0.85;;;;;;;;;;6185342;23;20001;-47
2021/05/06 11:53:34;;;;;;;0.82;0.82;;;;;;;;;;6185261;23;20305;-47
2021/05/06 11:56:09;;;;;;;2.60;0.80;;;;;;;;;;6185951;23;20005;-48
2021/05/06 11:58:38;;;;;;;2.80;0.70;;;;;;;;;;6185010;23;20079;-48
2021/05/06 12:01:05;;;;;;;0.73;0.73;;;;;;;;;;6185420;23;20067;-48
2021/05/06 12:03:35;;;;;;;1.48;0.70;;;;;;;;;;6185667;23;20009;-47
2021/05/06 12:06:01;;;;;;;0.88;0.73;;;;;;;;;;6185402;23;20368;-47
2021/05/06 12:08:30;;;;;;;1.40;0.85;;;;;;;;;;6185015;23;20047;-47
2021/05/06 12:10:57;;;;;;;0.30;0.30;;;;;;;;;;6184099;23;20001;-48
2021/05/06 12:13:27;;;;;;;1.08;0.60;;;;;;;;;;6185753;23;20001;-48
2021/05/06 12:15:53;;;;;;;1.02;0.90;;;;;;;;;;6185792;23;20009;-47
2021/05/06 12:18:20;;;;;;;4.45;1.52;;;;;;;;;;6185165;23;20001;-47
2021/05/06 12:20:56;;;;;;;1.38;1.00;;;;;;;;;;6184602;23;20037;-48
2021/05/06 12:23:23;;;;;;;0.95;0.85;;;;;;;;;;6185782;23;20012;-47
2021/05/06 12:25:49;;;;;;;2.35;1.10;;;;;;;;;;6185640;23;20072;-47
2021/05/06 12:28:15;;;;;;;6.20;1.15;;;;;;;;;;6185671;23;20028;-47
2021/05/06 12:30:41;;;;;;;1.60;0.93;;;;;;;;;;6184631;23;20675;-48
2021/05/06 12:33:07;;;;;;;2.03;1.15;;;;;;;;;;6186515;23;20012;-47
2021/05/06 12:35:47;;;;;;;1.58;0.90;;;;;;;;;;6187665;23;20341;-48
2021/05/06 12:38:14;;;;;;;2.17;1.38;;;;;;;;;;6187575;23;20052;-47
2021/05/06 12:40:40;;;;;;;0.20;0.20;;;;;;;;;;6186675;23;20079;-47
2021/05/06 12:43:30;;;;;;;0.88;0.88;;;;;;;;;;6187055;23;20009;-48
2021/05/06 12:46:00;;;;;;;1.30;0.82;;;;;;;;;;6187601;23;20001;-47
2021/05/06 12:48:39;;;;;;;0.98;0.85;;;;;;;;;;6187084;23;20021;-47
2021/05/06 12:51:06;;;;;;;0.52;0.50;;;;;;;;;;6187319;23;19997;-47
2021/05/06 12:53:32;;;;;;;0.40;0.40;;;;;;;;;;6186821;23;20035;-48
2021/05/06 12:55:58;;;;;;;0.30;0.30;;;;;;;;;;6186717;23;20012;-47
2021/05/06 12:58:28;;;;;;;0.75;0.70;;;;;;;;;;6187163;23;20005;-47
2021/05/06 13:00:55;;;;;;;;;;;;;;;;;;6187507;23;20005;-49
2021/05/06 13:03:48;;;;;;;1.67;0.90;;;;;;;;;;6186888;23;20261;-48
2021/05/06 13:06:16;;;;;;;0.77;0.60;;;;;;;;;;6184100;23;20032;-48
2021/05/06 13:08:42;;;;;;;0.90;0.80;;;;;;;;;;6186715;23;20009;-47
2021/05/06 13:11:29;;;;;;;0.90;0.77;;;;;;;;;;6187066;23;20001;-48
2021/05/06 13:13:56;;;;;;;1.38;1.00;;;;;;;;;;6187463;23;20004;-48
2021/05/06 13:16:38;;;;;;;2.28;1.10;;;;;;;;;;6186910;23;20325;-47
2021/05/06 13:19:11;;;;;;;2.17;0.80;;;;;;;;;;6186465;23;20342;-48
2021/05/06 13:21:38;;;;;;;1.75;1.02;;;;;;;;;;6187114;23;20278;-47
2021/05/06 13:24:07;;;;;;;1.42;0.80;;;;;;;;;;6187364;23;20009;-48
2021/05/06 13:26:35;;;;;;;2.23;1.33;;;;;;;;;;6186915;23;20070;-48
2021/05/06 13:29:02;;;;;;;2.38;1.15;;;;;;;;;;6186908;23;20247;-48
2021/05/06 13:31:32;;;;;;;3.33;1.08;;;;;;;;;;6186611;23;20001;-47
2021/05/06 13:34:17;;;;;;;1.70;1.13;;;;;;;;;;6187128;23;19997;-48
2021/05/06 13:36:45;;;;;;;1.52;1.30;;;;;;;;;;6186904;23;20001;-47
2021/05/06 13:39:12;;;;;;;1.50;0.60;;;;;;;;;;6186792;23;20049;-48
2021/05/06 13:41:40;;;;;;;1.10;1.00;;;;;;;;;;6186688;23;20032;-48
2021/05/06 13:44:07;;;;;;;0.85;0.77;;;;;;;;;;6186535;23;20013;-47
2021/05/06 13:46:34;;;;;;;1.10;0.82;;;;;;;;;;6186492;23;20020;-48
2021/05/06 13:49:00;;;;;;;1.88;1.58;;;;;;;;;;6186747;23;20005;-48
2021/05/06 13:51:27;;;;;;;1.00;0.90;;;;;;;;;;6186768;23;20055;-47
2021/05/06 13:53:54;;;;;;;2.65;0.88;;;;;;;;;;6186743;23;20282;-48
2021/05/06 13:56:20;;;;;;;0.80;0.80;;;;;;;;;;6186088;23;20348;-48
2021/05/06 13:58:46;;;;;;;1.65;1.00;;;;;;;;;;6186210;23;20390;-48
2021/05/06 14:01:13;;;;;;;0.52;0.45;;;;;;;;;;6185251;23;20068;-47
2021/05/06 14:03:39;;;;;;;1.77;0.88;;;;;;;;;;6186347;23;20005;-47
2021/05/06 14:06:06;;;;;;;0.82;0.80;;;;;;;;;;6186447;23;20008;-48
2021/05/06 14:08:32;;;;;;;1.52;0.80;;;;;;;;;;6186347;23;20353;-47
2021/05/06 14:10:59;;;;;;;1.63;0.90;;;;;;;;;;6185634;23;20393;-46
2021/05/06 14:13:25;;;;;;;3.55;0.57;;;;;;;;;;6186582;23;20087;-48
2021/05/06 14:15:51;;;;;;;0.60;0.55;;;;;;;;;;6186390;23;20009;-47
2021/05/06 14:18:17;;;;;;;1.63;1.30;;;;;;;;;;6186851;23;20008;-48
2021/05/06 14:20:44;;;;;;;1.20;0.73;;;;;;;;;;6186225;23;20013;-47
2021/05/06 14:23:11;;;;;;;0.43;0.43;;;;;;;;;;6186355;23;20507;-48
2021/05/06 14:25:37;;;;;;;0.65;0.65;;;;;;;;;;6185858;23;19997;-47
2021/05/06 14:28:04;;;;;;;2.60;1.63;;;;;;;;;;6186557;23;20001;-47
2021/05/06 14:30:30;;;;;;;1.10;0.93;;;;;;;;;;6186120;23;20055;-48
2021/05/06 14:32:56;;;;;;;0.45;0.45;;;;;;;;;;6186284;23;20020;-46
2021/05/06 14:35:22;;;;;;;1.75;1.00;;;;;;;;;;6186279;23;20055;-47
2021/05/06 14:37:48;;;;;;;3.03;1.05;;;;;;;;;;6186460;23;19997;-47
2021/05/06 14:40:15;;;;;;;0.35;0.35;;;;;;;;;;6185547;23;20024;-48
2021/05/06 14:42:41;;;;;;;1.05;1.00;;;;;;;;;;6185980;23;20011;-48
2021/05/06 14:45:09;;;;;;;0.75;0.60;;;;;;;;;;6186327;23;20123;-48
2021/05/06 14:47:37;;;;;;;1.25;0.45;;;;;;;;;;6185950;23;20008;-47
2021/05/06 14:50:14;;;;;;;1.40;1.15;;;;;;;;;;6185919;23;20039;-47
2021/05/06 14:52:40;;;;;;;0.93;0.90;;;;;;;;;;6185456;23;20001;-47
2021/05/06 14:55:07;;;;;;;0.63;0.63;;;;;;;;;;6186188;23;20011;-48
2021/05/06 14:57:34;;;;;;;1.02;0.82;;;;;;;;;;6185636;23;20084;-47
2021/05/06 15:00:00;;;;;;;1.50;1.30;;;;;;;;;;6185580;23;20028;-47
2021/05/06 15:02:26;;;;;;;0.40;0.40;;;;;;;;;;6186150;23;20008;-47
2021/05/06 15:04:52;;;;;;;1.42;1.08;;;;;;;;;;6186128;23;20005;-47
2021/05/06 15:07:18;;;;;;;3.58;1.02;;;;;;;;;;6185441;23;20001;-48
2021/05/06 15:09:44;;;;;;;0.68;0.47;;;;;;;;;;6184912;23;20005;-47
2021/05/06 15:12:10;;;;;;;1.15;1.00;;;;;;;;;;6184689;23;20788;-47
2021/05/06 15:14:36;;;;;;;2.67;1.00;;;;;;;;;;6184933;23;20001;-49
2021/05/06 15:17:02;;;;;;;1.58;0.90;;;;;;;;;;6184745;23;20008;-47
2021/05/06 15:19:28;;;;;;;4.68;1.50;;;;;;;;;;6183674;23;20041;-47
2021/05/06 15:21:54;;;;;;;0.30;0.30;;;;;;;;;;6184010;23;20020;-47
2021/05/06 15:24:20;;;;;;;1.88;0.63;;;;;;;;;;6183425;23;20009;-48
2021/05/06 15:26:46;;;;;;;2.13;1.25;;;;;;;;;;6183390;23;20058;-47
2021/05/06 15:29:19;;;;;;;2.05;1.30;;;;;;;;;;5108704;27;20855;-46
2021/05/06 15:31:44;;;;;;;3.83;1.15;;;;;;;;;;5109346;28;20038;-46
2021/05/06 15:34:10;;;;;;;0.43;0.43;;;;;;;;;;5108798;28;20064;-46
2021/05/06 15:36:37;;;;;;;3.63;1.48;;;;;;;;;;5104919;28;20027;-46
2021/05/06 15:39:06;;;;;;;2.17;1.05;;;;;;;;;;5107840;28;20074;-47
2021/05/06 15:41:32;;;;;;;1.20;0.80;;;;;;;;;;5107807;28;20385;-46
2021/05/06 15:43:58;;;;;;;1.15;1.02;;;;;;;;;;5108403;28;20494;-46
2021/05/06 15:46:24;;;;;;;2.85;0.65;;;;;;;;;;5108435;28;20018;-46
2021/05/06 15:48:50;;;;;;;3.97;1.55;;;;;;;;;;5107561;28;20042;-46
2021/05/06 15:51:16;;;;;;;4.20;1.20;;;;;;;;;;5108602;28;20028;-46
2021/05/06 15:53:43;;;;;;;4.00;1.98;;;;;;;;;;5108715;28;20074;-46
2021/05/06 15:56:10;;;;;;;4.03;1.80;;;;;;;;;;5109210;28;20022;-46
2021/05/06 15:58:37;;;;;;;0.82;0.45;;;;;;;;;;5108469;28;20024;-46
2021/05/06 16:01:03;;;;;;;2.63;1.45;;;;;;;;;;5108220;28;20441;-46
2021/05/06 16:03:32;;;;;;;2.10;1.58;;;;;;;;;;5108439;28;20026;-46
2021/05/06 16:05:58;;;;;;;1.92;0.85;;;;;;;;;;5108659;28;20019;-46
2021/05/06 16:08:25;;;;;;;3.88;1.77;;;;;;;;;;5105481;28;20119;-47
2021/05/06 16:10:51;;;;;;;5.82;1.67;;;;;;;;;;5108900;28;20115;-46
2021/05/06 16:13:21;;;;;;;1.00;0.93;;;;;;;;;;5108418;28;20503;-46
2021/05/06 16:15:49;;;;;;;6.93;1.45;;;;;;;;;;5108356;28;20011;-46
2021/05/06 16:18:16;;;;;;;1.80;1.13;;;;;;;;;;5108227;28;20349;-46
2021/05/06 16:20:42;;;;;;;1.17;0.93;;;;;;;;;;5107629;28;20040;-46
2021/05/06 16:23:09;;;;;;;3.05;1.48;;;;;;;;;;5108598;28;20022;-47
2021/05/06 16:25:35;;;;;;;4.43;1.33;;;;;;;;;;5108900;28;20440;-46
2021/05/06 16:28:02;;;;;;;3.65;1.63;;;;;;;;;;5108264;28;20031;-46
2021/05/06 16:30:28;;;;;;;2.70;1.40;;;;;;;;;;5107058;28;20024;-47
2021/05/06 16:32:56;;;;;;;1.90;1.17;;;;;;;;;;5107814;28;20028;-46
2021/05/06 16:35:25;;;;;;;2.42;1.33;;;;;;;;;;5108456;28;20102;-46
2021/05/06 16:38:10;;;;;;;10.32;1.58;;;;;;;;;;5108307;28;20107;-46
2021/05/06 16:40:53;;;;;;;1.60;1.08;;;;;;;;;;5092070;28;20040;-47
2021/05/06 16:43:58;;;;;;;5.10;1.40;;;;;;;;;;5092201;28;20039;-47
2021/05/06 16:46:14;;;;;;;2.40;1.27;;;;;;;;;;5091799;28;20385;-47
2021/05/06 16:48:41;;;;;;;2.97;1.35;;;;;;;;;;5093381;28;20377;-46
2021/05/06 16:51:07;;;;;;;2.45;1.50;;;;;;;;;;5094390;28;20435;-46
2021/05/06 16:53:33;;;;;;;5.53;1.85;;;;;;;;;;5094269;28;20028;-47
2021/05/06 16:55:59;;;;;;;2.97;1.25;;;;;;;;;;5095079;28;20353;-46
2021/05/06 16:58:25;;;;;;;4.13;1.30;;;;;;;;;;5094476;28;20046;-46
2021/05/06 17:00:53;;;;;;;1.55;1.15;;;;;;;;;;5094063;28;20023;-46
2021/05/06 17:03:19;;;;;;;2.10;1.38;;;;;;;;;;5093711;28;20067;-46
2021/05/06 17:05:46;;;;;;;1.15;1.05;;;;;;;;;;5093942;28;20016;-47
2021/05/06 17:08:12;;;;;;;3.22;1.27;;;;;;;;;;5093890;28;20365;-46
2021/05/06 17:10:38;;;;;;;1.80;0.90;;;;;;;;;;5093136;28;20043;-47
2021/05/06 17:13:09;;;;;;;1.20;0.95;;;;;;;;;;5093711;28;20130;-47
2021/05/06 17:15:35;;;;;;;0.73;0.73;;;;;;;;;;5094206;28;20024;-47
2021/05/06 17:18:01;;;;;;;3.53;1.65;;;;;;;;;;5092957;28;20030;-47
2021/05/06 17:20:27;;;;;;;2.55;0.90;;;;;;;;;;5095040;28;20106;-47
2021/05/06 17:22:53;;;;;;;3.70;1.85;;;;;;;;;;5094463;28;20103;-47
2021/05/06 17:25:21;;;;;;;2.97;1.27;;;;;;;;;;5094583;28;20043;-47
2021/05/06 17:27:47;;;;;;;2.88;1.50;;;;;;;;;;5094092;28;20080;-47
2021/05/06 17:30:16;;;;;;;2.17;1.40;;;;;;;;;;5094056;28;20040;-47
2021/05/06 17:32:43;;;;;;;2.35;1.42;;;;;;;;;;5094125;28;20039;-47
2021/05/06 17:35:09;;;;;;;4.53;1.92;;;;;;;;;;5093529;28;20107;-47
2021/05/06 17:37:36;;;;;;;2.88;1.42;;;;;;;;;;5094080;28;20437;-47
2021/05/06 17:40:03;;;;;;;0.80;0.70;;;;;;;;;;5093537;28;20032;-47
2021/05/06 17:42:29;;;;;;;0.73;0.73;;;;;;;;;;5093740;28;20103;-47
2021/05/06 17:44:55;;;;;;;0.90;0.88;;;;;;;;;;5094040;28;20158;-47
2021/05/06 17:47:23;;;;;;;1.63;1.40;;;;;;;;;;5093215;28;20365;-47
2021/05/06 17:49:49;;;;;;;1.38;1.25;;;;;;;;;;5092616;28;20028;-47
2021/05/06 17:52:15;;;;;;;2.67;1.50;;;;;;;;;;5091721;28;20103;-47
2021/05/06 17:54:41;;;;;;;3.30;1.25;;;;;;;;;;5093143;28;20020;-47
2021/05/06 17:57:07;;;;;;;1.85;1.10;;;;;;;;;;5091910;28;20016;-47
2021/05/06 17:59:33;;;;;;;2.47;1.00;;;;;;;;;;5089225;28;20035;-47
2021/05/06 18:01:59;;;;;;;3.33;2.00;;;;;;;;;;5092200;28;20048;-47
2021/05/06 18:04:26;;;;;;;1.55;1.10;;;;;;;;;;5091720;28;20031;-47
2021/05/06 18:06:52;;;;;;;6.10;1.35;;;;;;;;;;5091869;28;20114;-47
2021/05/06 18:09:26;;;;;;;1.48;1.30;;;;;;;;;;5092020;28;20135;-47
2021/05/06 18:12:10;;;;;;;1.48;1.05;;;;;;;;;;5092092;28;20115;-47
2021/05/06 18:14:36;;;;;;;1.50;1.40;;;;;;;;;;5090069;28;20115;-47
2021/05/06 18:17:02;;;;;;;5.88;2.67;;;;;;;;;;5090703;28;20557;-47
2021/05/06 18:19:29;;;;;;;1.42;0.93;;;;;;;;;;5086048;28;20024;-47
2021/05/06 18:21:55;;;;;;;1.38;1.00;;;;;;;;;;5088649;28;20024;-47